sensor_id;sensor_type;location;lat;lon;timestamp;temperature;humidity
3736;DHT22;1883;48.202;16.310;2023-04-24T00:13:09;14.80;69.90
3736;DHT22;1883;48.202;16.310;2023-04-24T00:15:45;14.80;69.70
3736;DHT22;1883;48.202;16.310;2023-04-24T00:18:29;14.80;69.80
3736;DHT22;1883;48.202;16.310;2023-04-24T00:20:56;14.80;69.70
3736;DHT22;1883;48.202;16.310;2023-04-24T00:23:22;14.70;69.70
3736;DHT22;1883;48.202;16.310;2023-04-24T00:25:49;14.80;69.70
3736;DHT22;1883;48.202;16.310;2023-04-24T00:31:20;14.70;69.60
3736;DHT22;1883;48.202;16.310;2023-04-24T00:33:47;14.70;69.60
3736;DHT22;1883;48.202;16.310;2023-04-24T00:36:14;14.70;69.50
3736;DHT22;1883;48.202;16.310;2023-04-24T00:38:41;14.70;69.50
3736;DHT22;1883;48.202;16.310;2023-04-24T00:41:08;14.60;69.40
3736;DHT22;1883;48.202;16.310;2023-04-24T00:43:35;14.60;69.40
3736;DHT22;1883;48.202;16.310;2023-04-24T00:49:14;14.60;69.30
3736;DHT22;1883;48.202;16.310;2023-04-24T01:11:50;14.20;68.80
3736;DHT22;1883;48.202;16.310;2023-04-24T01:14:17;14.30;68.70
3736;DHT22;1883;48.202;16.310;2023-04-24T01:17:16;14.20;68.70
3736;DHT22;1883;48.202;16.310;2023-04-24T01:20:18;14.20;68.70
3736;DHT22;1883;48.202;16.310;2023-04-24T01:22:48;14.10;68.70
3736;DHT22;1883;48.202;16.310;2023-04-24T01:25:14;14.10;68.60
3736;DHT22;1883;48.202;16.310;2023-04-24T01:27:41;14.10;68.50
3736;DHT22;1883;48.202;16.310;2023-04-24T01:30:32;14.10;68.40
3736;DHT22;1883;48.202;16.310;2023-04-24T01:33:44;14.10;68.40
3736;DHT22;1883;48.202;16.310;2023-04-24T01:36:12;14.00;68.30
3736;DHT22;1883;48.202;16.310;2023-04-24T01:38:41;13.80;68.20
3736;DHT22;1883;48.202;16.310;2023-04-24T01:41:08;13.90;68.00
3736;DHT22;1883;48.202;16.310;2023-04-24T01:43:35;13.80;68.00
3736;DHT22;1883;48.202;16.310;2023-04-24T01:46:02;13.70;67.80
3736;DHT22;1883;48.202;16.310;2023-04-24T01:48:44;13.70;67.70
3736;DHT22;1883;48.202;16.310;2023-04-24T01:51:47;13.60;67.60
3736;DHT22;1883;48.202;16.310;2023-04-24T01:54:16;13.60;67.40
3736;DHT22;1883;48.202;16.310;2023-04-24T01:56:43;13.30;66.90
3736;DHT22;1883;48.202;16.310;2023-04-24T01:59:11;13.10;66.50
3736;DHT22;1883;48.202;16.310;2023-04-24T02:01:38;13.00;66.10
3736;DHT22;1883;48.202;16.310;2023-04-24T02:04:07;12.90;65.70
3736;DHT22;1883;48.202;16.310;2023-04-24T02:06:34;12.80;65.50
3736;DHT22;1883;48.202;16.310;2023-04-24T02:09:01;12.80;65.10
3736;DHT22;1883;48.202;16.310;2023-04-24T02:11:30;12.80;65.10
3736;DHT22;1883;48.202;16.310;2023-04-24T02:13:56;12.80;65.00
3736;DHT22;1883;48.202;16.310;2023-04-24T02:16:23;12.80;64.90
3736;DHT22;1883;48.202;16.310;2023-04-24T02:19:10;12.90;65.00
3736;DHT22;1883;48.202;16.310;2023-04-24T02:21:58;12.80;65.10
3736;DHT22;1883;48.202;16.310;2023-04-24T02:24:25;12.90;65.30
3736;DHT22;1883;48.202;16.310;2023-04-24T02:26:53;12.90;65.40
3736;DHT22;1883;48.202;16.310;2023-04-24T02:29:21;12.80;65.20
3736;DHT22;1883;48.202;16.310;2023-04-24T02:31:48;12.80;65.10
3736;DHT22;1883;48.202;16.310;2023-04-24T02:34:15;12.80;64.90
3736;DHT22;1883;48.202;16.310;2023-04-24T02:36:42;12.70;64.70
3736;DHT22;1883;48.202;16.310;2023-04-24T02:39:09;12.60;64.60
3736;DHT22;1883;48.202;16.310;2023-04-24T02:41:36;12.70;64.50
3736;DHT22;1883;48.202;16.310;2023-04-24T02:44:04;12.60;64.40
3736;DHT22;1883;48.202;16.310;2023-04-24T02:46:31;12.60;64.30
3736;DHT22;1883;48.202;16.310;2023-04-24T02:48:58;12.50;64.10
3736;DHT22;1883;48.202;16.310;2023-04-24T02:51:24;12.60;64.00
3736;DHT22;1883;48.202;16.310;2023-04-24T02:53:52;12.50;63.90
3736;DHT22;1883;48.202;16.310;2023-04-24T02:56:19;12.60;63.80
3736;DHT22;1883;48.202;16.310;2023-04-24T02:58:46;12.50;63.80
3736;DHT22;1883;48.202;16.310;2023-04-24T03:01:14;12.60;63.70
3736;DHT22;1883;48.202;16.310;2023-04-24T03:03:41;12.60;63.70
3736;DHT22;1883;48.202;16.310;2023-04-24T03:06:22;12.50;63.60
3736;DHT22;1883;48.202;16.310;2023-04-24T03:09:11;12.50;63.60
3736;DHT22;1883;48.202;16.310;2023-04-24T03:11:38;12.50;63.50
3736;DHT22;1883;48.202;16.310;2023-04-24T03:14:05;12.50;63.30
3736;DHT22;1883;48.202;16.310;2023-04-24T03:16:33;12.50;63.40
3736;DHT22;1883;48.202;16.310;2023-04-24T03:19:00;12.60;63.20
3736;DHT22;1883;48.202;16.310;2023-04-24T03:21:33;12.50;62.90
3736;DHT22;1883;48.202;16.310;2023-04-24T03:24:33;12.50;62.80
3736;DHT22;1883;48.202;16.310;2023-04-24T03:27:00;12.40;62.70
3736;DHT22;1883;48.202;16.310;2023-04-24T03:29:27;12.50;62.60
3736;DHT22;1883;48.202;16.310;2023-04-24T03:31:55;12.40;62.50
3736;DHT22;1883;48.202;16.310;2023-04-24T03:34:32;12.50;62.30
3736;DHT22;1883;48.202;16.310;2023-04-24T03:37:21;12.60;62.30
3736;DHT22;1883;48.202;16.310;2023-04-24T03:40:11;12.60;62.30
3736;DHT22;1883;48.202;16.310;2023-04-24T03:43:10;12.60;62.20
3736;DHT22;1883;48.202;16.310;2023-04-24T03:45:51;12.60;62.10
3736;DHT22;1883;48.202;16.310;2023-04-24T03:48:35;12.60;62.00
3736;DHT22;1883;48.202;16.310;2023-04-24T03:51:05;12.80;62.00
3736;DHT22;1883;48.202;16.310;2023-04-24T03:53:47;12.70;61.90
3736;DHT22;1883;48.202;16.310;2023-04-24T03:56:14;12.80;61.80
3736;DHT22;1883;48.202;16.310;2023-04-24T03:58:42;12.80;61.70
3736;DHT22;1883;48.202;16.310;2023-04-24T04:01:10;12.90;61.60
3736;DHT22;1883;48.202;16.310;2023-04-24T08:47:26;12.90;57.10
3736;DHT22;1883;48.202;16.310;2023-04-24T08:49:58;12.80;55.00
3736;DHT22;1883;48.202;16.310;2023-04-24T08:52:43;12.70;54.00
3736;DHT22;1883;48.202;16.310;2023-04-24T08:55:24;12.60;53.50
3736;DHT22;1883;48.202;16.310;2023-04-24T08:58:10;12.60;53.70
3736;DHT22;1883;48.202;16.310;2023-04-24T09:00:42;12.50;53.00
3736;DHT22;1883;48.202;16.310;2023-04-24T09:03:27;12.40;52.40
3736;DHT22;1883;48.202;16.310;2023-04-24T09:05:57;12.40;52.40
3736;DHT22;1883;48.202;16.310;2023-04-24T09:08:33;12.40;52.10
3736;DHT22;1883;48.202;16.310;2023-04-24T09:11:05;12.20;51.20
3736;DHT22;1883;48.202;16.310;2023-04-24T09:13:33;12.10;51.00
3736;DHT22;1883;48.202;16.310;2023-04-24T09:16:01;12.10;51.10
3736;DHT22;1883;48.202;16.310;2023-04-24T09:18:29;12.20;51.30
3736;DHT22;1883;48.202;16.310;2023-04-24T09:21:01;12.20;51.40
3736;DHT22;1883;48.202;16.310;2023-04-24T09:23:28;12.10;51.40
3736;DHT22;1883;48.202;16.310;2023-04-24T09:26:05;12.20;51.90
3736;DHT22;1883;48.202;16.310;2023-04-24T09:28:34;12.20;51.90
3736;DHT22;1883;48.202;16.310;2023-04-24T09:31:03;12.30;52.10
3736;DHT22;1883;48.202;16.310;2023-04-24T09:33:32;12.20;51.80
3736;DHT22;1883;48.202;16.310;2023-04-24T09:36:00;12.20;52.60
3736;DHT22;1883;48.202;16.310;2023-04-24T09:38:35;12.30;52.70
3736;DHT22;1883;48.202;16.310;2023-04-24T09:41:03;12.20;52.80
3736;DHT22;1883;48.202;16.310;2023-04-24T09:43:31;12.30;52.90
3736;DHT22;1883;48.202;16.310;2023-04-24T09:46:05;12.30;54.00
3736;DHT22;1883;48.202;16.310;2023-04-24T09:48:49;12.40;54.20
3736;DHT22;1883;48.202;16.310;2023-04-24T09:51:17;12.20;54.60
3736;DHT22;1883;48.202;16.310;2023-04-24T09:53:46;12.30;55.00
3736;DHT22;1883;48.202;16.310;2023-04-24T09:56:15;12.30;55.10
3736;DHT22;1883;48.202;16.310;2023-04-24T09:58:42;12.30;55.10
3736;DHT22;1883;48.202;16.310;2023-04-24T10:01:09;12.40;55.00
3736;DHT22;1883;48.202;16.310;2023-04-24T10:03:37;12.40;55.00
3736;DHT22;1883;48.202;16.310;2023-04-24T10:06:22;12.20;55.20
3736;DHT22;1883;48.202;16.310;2023-04-24T10:08:50;12.40;55.20
3736;DHT22;1883;48.202;16.310;2023-04-24T10:11:17;12.40;55.70
3736;DHT22;1883;48.202;16.310;2023-04-24T10:13:44;12.50;55.70
3736;DHT22;1883;48.202;16.310;2023-04-24T10:16:12;12.40;56.30
3736;DHT22;1883;48.202;16.310;2023-04-24T10:18:41;12.50;56.50
3736;DHT22;1883;48.202;16.310;2023-04-24T10:21:08;12.60;56.40
3736;DHT22;1883;48.202;16.310;2023-04-24T10:23:42;12.50;56.60
3736;DHT22;1883;48.202;16.310;2023-04-24T10:26:12;12.60;56.60
3736;DHT22;1883;48.202;16.310;2023-04-24T10:28:45;12.60;56.30
3736;DHT22;1883;48.202;16.310;2023-04-24T10:31:13;12.60;55.70
3736;DHT22;1883;48.202;16.310;2023-04-24T10:33:55;12.40;55.70
3736;DHT22;1883;48.202;16.310;2023-04-24T10:36:24;12.40;55.20
3736;DHT22;1883;48.202;16.310;2023-04-24T10:38:57;12.40;54.50
3736;DHT22;1883;48.202;16.310;2023-04-24T10:41:26;12.30;53.20
3736;DHT22;1883;48.202;16.310;2023-04-24T10:44:07;12.20;52.70
3736;DHT22;1883;48.202;16.310;2023-04-24T10:46:36;12.20;52.40
3736;DHT22;1883;48.202;16.310;2023-04-24T10:49:05;12.20;52.30
3736;DHT22;1883;48.202;16.310;2023-04-24T10:51:49;12.30;52.30
3736;DHT22;1883;48.202;16.310;2023-04-24T10:54:27;12.30;52.40
3736;DHT22;1883;48.202;16.310;2023-04-24T10:57:25;12.30;52.30
3736;DHT22;1883;48.202;16.310;2023-04-24T11:00:18;12.20;52.20
3736;DHT22;1883;48.202;16.310;2023-04-24T11:02:46;12.20;51.90
3736;DHT22;1883;48.202;16.310;2023-04-24T11:05:20;12.10;51.50
3736;DHT22;1883;48.202;16.310;2023-04-24T11:08:12;12.10;51.00
3736;DHT22;1883;48.202;16.310;2023-04-24T11:10:46;12.10;51.20
3736;DHT22;1883;48.202;16.310;2023-04-24T11:13:15;12.10;51.00
3736;DHT22;1883;48.202;16.310;2023-04-24T11:15:43;12.10;51.00
3736;DHT22;1883;48.202;16.310;2023-04-24T11:18:14;12.20;51.00
3736;DHT22;1883;48.202;16.310;2023-04-24T11:20:42;12.10;50.70
3736;DHT22;1883;48.202;16.310;2023-04-24T11:23:12;12.10;50.80
3736;DHT22;1883;48.202;16.310;2023-04-24T11:25:41;12.30;50.30
3736;DHT22;1883;48.202;16.310;2023-04-24T11:28:14;12.20;50.50
3736;DHT22;1883;48.202;16.310;2023-04-24T11:30:42;12.20;50.20
3736;DHT22;1883;48.202;16.310;2023-04-24T11:33:09;12.20;49.80
3736;DHT22;1883;48.202;16.310;2023-04-24T11:35:39;12.10;49.60
3736;DHT22;1883;48.202;16.310;2023-04-24T11:38:07;12.20;49.50
3736;DHT22;1883;48.202;16.310;2023-04-24T11:40:34;12.40;49.60
3736;DHT22;1883;48.202;16.310;2023-04-24T11:43:04;12.40;49.80
3736;DHT22;1883;48.202;16.310;2023-04-24T11:45:31;12.30;49.80
3736;DHT22;1883;48.202;16.310;2023-04-24T11:47:58;12.30;49.50
3736;DHT22;1883;48.202;16.310;2023-04-24T11:50:26;12.30;49.40
3736;DHT22;1883;48.202;16.310;2023-04-24T11:52:56;12.40;49.10
3736;DHT22;1883;48.202;16.310;2023-04-24T11:55:24;12.20;49.00
3736;DHT22;1883;48.202;16.310;2023-04-24T11:57:54;12.30;49.10
3736;DHT22;1883;48.202;16.310;2023-04-24T12:00:28;12.20;48.90
3736;DHT22;1883;48.202;16.310;2023-04-24T12:03:05;12.20;48.80
3736;DHT22;1883;48.202;16.310;2023-04-24T12:05:36;12.40;49.00
3736;DHT22;1883;48.202;16.310;2023-04-24T12:08:03;12.40;49.10
3736;DHT22;1883;48.202;16.310;2023-04-24T12:10:35;12.50;49.10
3736;DHT22;1883;48.202;16.310;2023-04-24T12:13:03;12.70;49.00
3736;DHT22;1883;48.202;16.310;2023-04-24T12:15:46;12.80;48.70
3736;DHT22;1883;48.202;16.310;2023-04-24T12:18:13;13.00;49.00
3736;DHT22;1883;48.202;16.310;2023-04-24T12:20:54;13.00;49.30
3736;DHT22;1883;48.202;16.310;2023-04-24T12:26:10;13.00;49.50
3736;DHT22;1883;48.202;16.310;2023-04-24T12:28:40;13.00;49.60
3736;DHT22;1883;48.202;16.310;2023-04-24T12:31:24;13.10;49.90
3736;DHT22;1883;48.202;16.310;2023-04-24T12:34:02;13.00;50.00
3736;DHT22;1883;48.202;16.310;2023-04-24T12:36:31;13.00;49.80
3736;DHT22;1883;48.202;16.310;2023-04-24T12:38:59;13.00;49.50
3736;DHT22;1883;48.202;16.310;2023-04-24T12:41:26;13.20;49.80
3736;DHT22;1883;48.202;16.310;2023-04-24T12:43:57;13.10;49.70
3736;DHT22;1883;48.202;16.310;2023-04-24T12:46:28;13.20;50.00
3736;DHT22;1883;48.202;16.310;2023-04-24T12:48:55;13.10;49.80
3736;DHT22;1883;48.202;16.310;2023-04-24T12:51:36;13.10;49.80
3736;DHT22;1883;48.202;16.310;2023-04-24T12:54:04;13.20;50.20
3736;DHT22;1883;48.202;16.310;2023-04-24T12:56:32;13.10;50.50
3736;DHT22;1883;48.202;16.310;2023-04-24T12:59:08;13.10;50.30
3736;DHT22;1883;48.202;16.310;2023-04-24T13:01:37;13.10;50.60
3736;DHT22;1883;48.202;16.310;2023-04-24T13:04:05;13.10;50.80
3736;DHT22;1883;48.202;16.310;2023-04-24T13:06:32;13.10;50.80
3736;DHT22;1883;48.202;16.310;2023-04-24T13:09:00;13.10;50.60
3736;DHT22;1883;48.202;16.310;2023-04-24T13:11:27;13.20;50.60
3736;DHT22;1883;48.202;16.310;2023-04-24T13:13:56;13.20;50.60
3736;DHT22;1883;48.202;16.310;2023-04-24T13:16:24;13.40;51.30
3736;DHT22;1883;48.202;16.310;2023-04-24T13:18:53;13.60;51.60
3736;DHT22;1883;48.202;16.310;2023-04-24T13:21:20;13.60;51.50
3736;DHT22;1883;48.202;16.310;2023-04-24T13:23:47;13.60;52.50
3736;DHT22;1883;48.202;16.310;2023-04-24T13:26:15;13.60;52.10
3736;DHT22;1883;48.202;16.310;2023-04-24T13:28:42;13.60;52.20
3736;DHT22;1883;48.202;16.310;2023-04-24T13:31:11;13.70;52.60
3736;DHT22;1883;48.202;16.310;2023-04-24T13:33:39;13.70;52.40
3736;DHT22;1883;48.202;16.310;2023-04-24T13:36:07;13.60;52.00
3736;DHT22;1883;48.202;16.310;2023-04-24T13:38:35;13.60;52.10
3736;DHT22;1883;48.202;16.310;2023-04-24T13:41:06;13.60;52.20
3736;DHT22;1883;48.202;16.310;2023-04-24T13:43:33;13.50;52.50
3736;DHT22;1883;48.202;16.310;2023-04-24T13:46:01;13.30;52.20
3736;DHT22;1883;48.202;16.310;2023-04-24T13:48:29;13.30;52.20
3736;DHT22;1883;48.202;16.310;2023-04-24T13:50:58;13.20;51.70
3736;DHT22;1883;48.202;16.310;2023-04-24T13:56:52;13.10;51.60
3736;DHT22;1883;48.202;16.310;2023-04-24T13:59:22;13.00;51.60
3736;DHT22;1883;48.202;16.310;2023-04-24T14:01:58;13.00;51.40
3736;DHT22;1883;48.202;16.310;2023-04-24T14:04:27;12.90;51.10
3736;DHT22;1883;48.202;16.310;2023-04-24T14:06:56;13.00;51.10
3736;DHT22;1883;48.202;16.310;2023-04-24T14:09:34;12.90;50.70
3736;DHT22;1883;48.202;16.310;2023-04-24T14:15:32;12.70;50.20
3736;DHT22;1883;48.202;16.310;2023-04-24T14:18:04;12.80;50.10
3736;DHT22;1883;48.202;16.310;2023-04-24T14:20:46;12.70;49.90
3736;DHT22;1883;48.202;16.310;2023-04-24T14:23:30;12.90;49.90
3736;DHT22;1883;48.202;16.310;2023-04-24T14:25:59;13.10;50.00
3736;DHT22;1883;48.202;16.310;2023-04-24T14:29:00;12.90;50.00
3736;DHT22;1883;48.202;16.310;2023-04-24T14:34:46;13.00;50.00
3736;DHT22;1883;48.202;16.310;2023-04-24T14:37:27;13.00;49.80
3736;DHT22;1883;48.202;16.310;2023-04-24T14:39:56;13.00;50.30
3736;DHT22;1883;48.202;16.310;2023-04-24T14:42:24;13.00;50.20
3736;DHT22;1883;48.202;16.310;2023-04-24T14:45:00;12.80;50.00
3736;DHT22;1883;48.202;16.310;2023-04-24T14:47:43;12.80;49.90
3736;DHT22;1883;48.202;16.310;2023-04-24T15:32:10;12.40;48.00
3736;DHT22;1883;48.202;16.310;2023-04-24T15:34:41;12.20;48.40
3736;DHT22;1883;48.202;16.310;2023-04-24T15:37:23;12.10;48.90
3736;DHT22;1883;48.202;16.310;2023-04-24T15:40:17;12.00;49.10
3736;DHT22;1883;48.202;16.310;2023-04-24T15:42:58;11.80;50.00
3736;DHT22;1883;48.202;16.310;2023-04-24T15:45:40;11.60;49.70
3736;DHT22;1883;48.202;16.310;2023-04-24T16:14:19;11.00;47.30
3736;DHT22;1883;48.202;16.310;2023-04-24T16:17:05;10.90;47.10
3736;DHT22;1883;48.202;16.310;2023-04-24T16:19:47;10.80;47.30
3736;DHT22;1883;48.202;16.310;2023-04-24T16:22:29;10.80;47.00
3736;DHT22;1883;48.202;16.310;2023-04-24T16:25:30;10.70;47.00
3736;DHT22;1883;48.202;16.310;2023-04-24T16:28:18;10.80;47.20
3736;DHT22;1883;48.202;16.310;2023-04-24T16:56:26;10.60;47.10
3736;DHT22;1883;48.202;16.310;2023-04-24T16:59:07;10.50;47.20
3736;DHT22;1883;48.202;16.310;2023-04-24T17:02:04;10.50;47.20
3736;DHT22;1883;48.202;16.310;2023-04-24T17:04:50;10.40;47.20
3736;DHT22;1883;48.202;16.310;2023-04-24T17:07:38;10.50;47.10
3736;DHT22;1883;48.202;16.310;2023-04-24T17:10:24;10.60;47.00
3736;DHT22;1883;48.202;16.310;2023-04-24T17:51:54;10.70;48.20
3736;DHT22;1883;48.202;16.310;2023-04-24T17:54:44;10.60;48.30
3736;DHT22;1883;48.202;16.310;2023-04-24T17:57:34;10.60;48.20
3736;DHT22;1883;48.202;16.310;2023-04-24T18:03:46;10.60;48.40
3736;DHT22;1883;48.202;16.310;2023-04-24T18:16:22;10.50;48.30
3736;DHT22;1883;48.202;16.310;2023-04-24T18:22:40;10.40;48.00
3736;DHT22;1883;48.202;16.310;2023-04-24T18:26:04;10.50;48.20
3736;DHT22;1883;48.202;16.310;2023-04-24T18:38:54;10.50;49.20
3736;DHT22;1883;48.202;16.310;2023-04-24T18:41:55;10.60;49.20
3736;DHT22;1883;48.202;16.310;2023-04-24T18:44:41;10.50;49.20
3736;DHT22;1883;48.202;16.310;2023-04-24T18:47:22;10.50;49.20
3736;DHT22;1883;48.202;16.310;2023-04-24T18:49:53;10.40;49.80
3736;DHT22;1883;48.202;16.310;2023-04-24T18:52:36;10.50;49.60
3736;DHT22;1883;48.202;16.310;2023-04-24T18:55:26;10.50;49.70
3736;DHT22;1883;48.202;16.310;2023-04-24T18:58:08;10.50;49.90
3736;DHT22;1883;48.202;16.310;2023-04-24T19:01:03;10.60;50.10
3736;DHT22;1883;48.202;16.310;2023-04-24T19:03:45;10.40;50.00
3736;DHT22;1883;48.202;16.310;2023-04-24T19:06:54;10.50;50.40
3736;DHT22;1883;48.202;16.310;2023-04-24T19:09:37;10.50;50.30
3736;DHT22;1883;48.202;16.310;2023-04-24T19:19:09;10.50;50.70
3736;DHT22;1883;48.202;16.310;2023-04-24T19:21:54;10.50;50.60
3736;DHT22;1883;48.202;16.310;2023-04-24T19:24:56;10.50;50.60
3736;DHT22;1883;48.202;16.310;2023-04-24T19:27:38;10.50;50.60
3736;DHT22;1883;48.202;16.310;2023-04-24T19:30:45;10.50;50.50
3736;DHT22;1883;48.202;16.310;2023-04-24T19:33:16;10.50;50.60
3736;DHT22;1883;48.202;16.310;2023-04-24T19:36:06;10.50;50.80
3736;DHT22;1883;48.202;16.310;2023-04-24T19:38:47;10.60;50.80
3736;DHT22;1883;48.202;16.310;2023-04-24T19:41:25;10.60;50.80
3736;DHT22;1883;48.202;16.310;2023-04-24T19:43:56;10.60;50.60
3736;DHT22;1883;48.202;16.310;2023-04-24T19:46:25;10.40;50.60
3736;DHT22;1883;48.202;16.310;2023-04-24T19:48:54;10.50;50.60
3736;DHT22;1883;48.202;16.310;2023-04-24T19:51:38;10.50;50.70
3736;DHT22;1883;48.202;16.310;2023-04-24T19:54:15;10.50;50.70
3736;DHT22;1883;48.202;16.310;2023-04-24T19:56:45;10.50;50.70
3736;DHT22;1883;48.202;16.310;2023-04-24T19:59:14;10.60;50.80
3736;DHT22;1883;48.202;16.310;2023-04-24T20:01:42;10.50;50.80
3736;DHT22;1883;48.202;16.310;2023-04-24T20:04:09;10.50;50.90
3736;DHT22;1883;48.202;16.310;2023-04-24T20:06:40;10.50;51.10
3736;DHT22;1883;48.202;16.310;2023-04-24T20:09:09;10.50;51.50
3736;DHT22;1883;48.202;16.310;2023-04-24T20:11:36;10.50;51.50
3736;DHT22;1883;48.202;16.310;2023-04-24T20:14:17;10.30;51.50
3736;DHT22;1883;48.202;16.310;2023-04-24T20:16:45;10.40;51.70
3736;DHT22;1883;48.202;16.310;2023-04-24T20:19:12;10.50;51.80
3736;DHT22;1883;48.202;16.310;2023-04-24T20:21:41;10.30;51.80
3736;DHT22;1883;48.202;16.310;2023-04-24T20:24:09;10.40;51.90
3736;DHT22;1883;48.202;16.310;2023-04-24T20:26:37;10.40;51.90
3736;DHT22;1883;48.202;16.310;2023-04-24T20:29:05;10.40;52.00
3736;DHT22;1883;48.202;16.310;2023-04-24T20:31:34;10.50;52.20
3736;DHT22;1883;48.202;16.310;2023-04-24T20:34:01;10.50;52.20
3736;DHT22;1883;48.202;16.310;2023-04-24T20:36:36;10.40;52.40
3736;DHT22;1883;48.202;16.310;2023-04-24T20:39:14;10.40;52.40
3736;DHT22;1883;48.202;16.310;2023-04-24T20:41:41;10.40;52.50
3736;DHT22;1883;48.202;16.310;2023-04-24T20:44:11;10.40;52.50
3736;DHT22;1883;48.202;16.310;2023-04-24T20:46:38;10.40;52.90
3736;DHT22;1883;48.202;16.310;2023-04-24T20:49:06;10.40;53.00
3736;DHT22;1883;48.202;16.310;2023-04-24T20:51:34;10.40;53.20
3736;DHT22;1883;48.202;16.310;2023-04-24T20:54:01;10.40;53.50
3736;DHT22;1883;48.202;16.310;2023-04-24T20:56:30;10.50;53.90
3736;DHT22;1883;48.202;16.310;2023-04-24T20:58:57;10.40;54.00
3736;DHT22;1883;48.202;16.310;2023-04-24T21:01:25;10.40;53.90
3736;DHT22;1883;48.202;16.310;2023-04-24T21:03:52;10.40;54.10
3736;DHT22;1883;48.202;16.310;2023-04-24T21:06:19;10.50;54.30
3736;DHT22;1883;48.202;16.310;2023-04-24T21:08:46;10.30;54.40
3736;DHT22;1883;48.202;16.310;2023-04-24T21:11:13;10.40;54.50
3736;DHT22;1883;48.202;16.310;2023-04-24T21:13:42;10.40;54.60
3736;DHT22;1883;48.202;16.310;2023-04-24T21:16:09;10.40;54.60
3736;DHT22;1883;48.202;16.310;2023-04-24T21:18:36;10.40;55.00
3736;DHT22;1883;48.202;16.310;2023-04-24T21:21:12;10.40;54.80
3736;DHT22;1883;48.202;16.310;2023-04-24T21:23:39;10.40;55.10
3736;DHT22;1883;48.202;16.310;2023-04-24T21:26:20;10.40;55.00
3736;DHT22;1883;48.202;16.310;2023-04-24T21:28:52;10.40;55.10
3736;DHT22;1883;48.202;16.310;2023-04-24T21:31:22;10.30;55.10
3736;DHT22;1883;48.202;16.310;2023-04-24T21:33:51;10.40;55.40
3736;DHT22;1883;48.202;16.310;2023-04-24T21:36:19;10.40;55.30
3736;DHT22;1883;48.202;16.310;2023-04-24T21:38:50;10.30;55.40
3736;DHT22;1883;48.202;16.310;2023-04-24T21:41:20;10.40;55.60
3736;DHT22;1883;48.202;16.310;2023-04-24T21:43:51;10.40;55.90
3736;DHT22;1883;48.202;16.310;2023-04-24T21:46:18;10.40;56.00
3736;DHT22;1883;48.202;16.310;2023-04-24T21:48:46;10.40;56.40
3736;DHT22;1883;48.202;16.310;2023-04-24T21:51:13;10.30;56.60
3736;DHT22;1883;48.202;16.310;2023-04-24T21:53:41;10.40;57.00
3736;DHT22;1883;48.202;16.310;2023-04-24T21:56:14;10.40;57.20
3736;DHT22;1883;48.202;16.310;2023-04-24T21:58:42;10.50;57.40
3736;DHT22;1883;48.202;16.310;2023-04-24T22:01:21;10.40;58.10
3736;DHT22;1883;48.202;16.310;2023-04-24T22:03:49;10.50;59.00
3736;DHT22;1883;48.202;16.310;2023-04-24T22:06:24;10.40;58.70
3736;DHT22;1883;48.202;16.310;2023-04-24T22:08:54;10.40;58.70
3736;DHT22;1883;48.202;16.310;2023-04-24T22:11:22;10.50;59.40
3736;DHT22;1883;48.202;16.310;2023-04-24T22:13:49;10.40;59.50
3736;DHT22;1883;48.202;16.310;2023-04-24T22:16:16;10.50;59.90
3736;DHT22;1883;48.202;16.310;2023-04-24T22:18:45;10.40;60.00
3736;DHT22;1883;48.202;16.310;2023-04-24T22:21:15;10.40;60.40
3736;DHT22;1883;48.202;16.310;2023-04-24T22:23:42;10.50;60.70
3736;DHT22;1883;48.202;16.310;2023-04-24T22:26:09;10.50;60.80
3736;DHT22;1883;48.202;16.310;2023-04-24T22:28:36;10.40;60.50
3736;DHT22;1883;48.202;16.310;2023-04-24T22:31:03;10.40;60.70
3736;DHT22;1883;48.202;16.310;2023-04-24T22:33:30;10.40;60.70
3736;DHT22;1883;48.202;16.310;2023-04-24T22:35:59;10.40;60.70
3736;DHT22;1883;48.202;16.310;2023-04-24T22:38:26;10.40;60.80
3736;DHT22;1883;48.202;16.310;2023-04-24T22:40:53;10.30;60.70
3736;DHT22;1883;48.202;16.310;2023-04-24T22:43:20;10.30;60.70
3736;DHT22;1883;48.202;16.310;2023-04-24T22:45:47;10.40;60.80
3736;DHT22;1883;48.202;16.310;2023-04-24T22:48:14;10.30;61.00
3736;DHT22;1883;48.202;16.310;2023-04-24T22:50:42;10.30;61.30
3736;DHT22;1883;48.202;16.310;2023-04-24T22:53:10;10.30;61.30
3736;DHT22;1883;48.202;16.310;2023-04-24T22:55:37;10.30;61.40
3736;DHT22;1883;48.202;16.310;2023-04-24T22:58:04;10.40;61.40
3736;DHT22;1883;48.202;16.310;2023-04-24T23:00:32;10.30;61.40
3736;DHT22;1883;48.202;16.310;2023-04-24T23:02:59;10.20;61.50
3736;DHT22;1883;48.202;16.310;2023-04-24T23:05:26;10.20;61.40
3736;DHT22;1883;48.202;16.310;2023-04-24T23:07:53;10.20;61.10
3736;DHT22;1883;48.202;16.310;2023-04-24T23:10:22;10.10;61.10
3736;DHT22;1883;48.202;16.310;2023-04-24T23:12:48;10.20;61.00
3736;DHT22;1883;48.202;16.310;2023-04-24T23:15:16;10.30;61.20
3736;DHT22;1883;48.202;16.310;2023-04-24T23:17:43;10.20;61.00
3736;DHT22;1883;48.202;16.310;2023-04-24T23:20:10;10.20;61.20
3736;DHT22;1883;48.202;16.310;2023-04-24T23:22:38;10.10;61.10
3736;DHT22;1883;48.202;16.310;2023-04-24T23:25:06;10.10;61.00
3736;DHT22;1883;48.202;16.310;2023-04-24T23:27:35;10.10;61.00
3736;DHT22;1883;48.202;16.310;2023-04-24T23:30:03;10.10;61.00
3736;DHT22;1883;48.202;16.310;2023-04-24T23:32:31;10.10;61.10
3736;DHT22;1883;48.202;16.310;2023-04-24T23:34:58;10.10;61.00
3736;DHT22;1883;48.202;16.310;2023-04-24T23:37:25;10.00;61.00
3736;DHT22;1883;48.202;16.310;2023-04-24T23:39:52;10.00;60.90
3736;DHT22;1883;48.202;16.310;2023-04-24T23:42:19;10.00;61.20
3736;DHT22;1883;48.202;16.310;2023-04-24T23:44:48;10.10;61.20
3736;DHT22;1883;48.202;16.310;2023-04-24T23:47:15;10.00;61.40
3736;DHT22;1883;48.202;16.310;2023-04-24T23:49:42;10.00;61.50
3736;DHT22;1883;48.202;16.310;2023-04-24T23:52:09;10.10;61.60
3736;DHT22;1883;48.202;16.310;2023-04-24T23:54:36;10.00;61.60
3736;DHT22;1883;48.202;16.310;2023-04-24T23:57:03;9.90;61.70
3736;DHT22;1883;48.202;16.310;2023-04-24T23:59:30;10.10;61.70
